Time;durP1;ratioP1;P1;durP2;ratioP2;P2;SDS_P1;SDS_P2;PMS_P1;PMS_P2;Temp;Humidity;BMP_temperature;BMP_pressure;BME280_temperature;BME280_humidity;BME280_pressure;Samples;Min_cycle;Max_cycle;Signal;HPM_P1;HPM_P2
2024/01/08 00:04:14;;;;;;;4.60;2.05;;;13.00;99.90;;;;;;10553621;27;20777;-67
2024/01/08 00:09:16;;;;;;;5.80;2.57;;;12.90;99.90;;;;;;10559901;27;20046;-66
2024/01/08 00:14:19;;;;;;;7.22;2.97;;;12.90;99.90;;;;;;10558847;27;20069;-67
2024/01/08 00:19:21;;;;;;;3.65;1.83;;;13.00;99.90;;;;;;10551482;27;20086;-67
2024/01/08 00:24:23;;;;;;;3.60;2.13;;;12.90;99.90;;;;;;10560483;28;20526;-67
2024/01/08 00:29:27;;;;;;;4.13;2.28;;;12.80;99.90;;;;;;10561798;27;20051;-67
2024/01/08 00:34:29;;;;;;;3.72;2.38;;;12.80;99.90;;;;;;10567175;27;20055;-67
2024/01/08 00:39:31;;;;;;;2.97;2.17;;;12.80;99.90;;;;;;10567094;27;20156;-68
2024/01/08 00:44:34;;;;;;;2.87;1.73;;;12.80;99.90;;;;;;10569721;27;20052;-67
2024/01/08 00:49:36;;;;;;;2.67;1.85;;;12.70;99.90;;;;;;10556886;27;20088;-67
2024/01/08 00:54:38;;;;;;;3.22;1.80;;;12.70;99.90;;;;;;10565596;27;20047;-66
2024/01/08 00:59:42;;;;;;;4.47;2.63;;;12.70;99.90;;;;;;10574618;27;20079;-66
2024/01/08 01:04:44;;;;;;;4.43;1.48;;;12.70;99.90;;;;;;10570109;27;20332;-65
2024/01/08 01:09:48;;;;;;;2.33;1.57;;;12.70;99.90;;;;;;10560328;27;20573;-67
2024/01/08 01:14:51;;;;;;;2.55;1.65;;;12.70;99.90;;;;;;10569029;27;20075;-66
2024/01/08 01:19:53;;;;;;;2.95;1.67;;;12.60;99.90;;;;;;10562562;27;20040;-65
2024/01/08 01:24:55;;;;;;;3.07;2.17;;;12.70;99.90;;;;;;10567060;27;20051;-65
2024/01/08 01:29:59;;;;;;;2.03;1.83;;;12.70;99.90;;;;;;10562572;27;20070;-67
2024/01/08 01:35:01;;;;;;;2.60;1.65;;;12.80;99.90;;;;;;10565073;27;20060;-67
2024/01/08 01:40:04;;;;;;;5.15;2.20;;;12.70;99.90;;;;;;10559993;27;20120;-66
2024/01/08 01:45:08;;;;;;;;;;;12.70;99.90;;;;;;10558727;27;20056;-66
2024/01/08 01:50:11;;;;;;;2.88;2.25;;;12.80;99.90;;;;;;10557433;27;20445;-66
2024/01/08 01:55:14;;;;;;;2.38;2.00;;;12.80;99.90;;;;;;10564314;27;20051;-66
2024/01/08 02:00:18;;;;;;;7.70;3.13;;;12.80;99.90;;;;;;10562933;27;20493;-66
2024/01/08 02:05:20;;;;;;;2.75;1.73;;;12.80;99.90;;;;;;10556200;27;20134;-66
2024/01/08 02:10:22;;;;;;;3.40;1.90;;;12.90;99.90;;;;;;10558717;27;20051;-67
2024/01/08 02:15:28;;;;;;;2.80;1.77;;;12.90;99.90;;;;;;10562464;27;20427;-67
2024/01/08 02:20:31;;;;;;;4.28;2.10;;;12.80;99.90;;;;;;10551450;27;20039;-67
2024/01/08 02:25:34;;;;;;;1.55;1.33;;;12.90;99.90;;;;;;10556929;27;20716;-66
2024/01/08 02:30:36;;;;;;;5.15;2.08;;;12.90;99.90;;;;;;10550055;27;20050;-66
2024/01/08 02:35:38;;;;;;;4.37;2.07;;;12.90;99.90;;;;;;10557670;27;20070;-67
2024/01/08 02:40:44;;;;;;;2.67;1.87;;;12.90;99.90;;;;;;10560732;27;20063;-66
2024/01/08 02:45:46;;;;;;;3.88;2.08;;;12.90;99.90;;;;;;10561110;27;20210;-67
2024/01/08 02:50:48;;;;;;;1.70;1.43;;;12.90;99.90;;;;;;10558498;27;22997;-66
2024/01/08 02:55:51;;;;;;;2.70;1.88;;;13.00;99.90;;;;;;10564581;27;20051;-66
2024/01/08 03:00:53;;;;;;;2.30;1.67;;;12.80;99.90;;;;;;10561360;27;20078;-66
2024/01/08 03:05:55;;;;;;;2.92;1.75;;;12.90;99.90;;;;;;10556751;27;20043;-66
2024/01/08 03:10:58;;;;;;;2.20;1.00;;;12.90;99.90;;;;;;10559122;27;20090;-65
2024/01/08 03:16:01;;;;;;;2.13;1.27;;;12.80;99.90;;;;;;10559636;27;20058;-65
2024/01/08 03:21:03;;;;;;;2.13;1.75;;;12.80;99.90;;;;;;10555753;27;20111;-66
2024/01/08 03:26:07;;;;;;;2.73;2.00;;;12.90;99.90;;;;;;10562104;27;20046;-66
2024/01/08 03:31:09;;;;;;;4.22;2.25;;;12.80;99.90;;;;;;10562010;27;20040;-66
2024/01/08 03:36:12;;;;;;;3.30;2.07;;;12.70;99.90;;;;;;10559855;27;20486;-67
2024/01/08 03:41:16;;;;;;;5.68;2.58;;;12.80;99.90;;;;;;10557427;27;20047;-66
2024/01/08 03:46:18;;;;;;;4.05;1.80;;;12.80;99.90;;;;;;10556561;27;20053;-66
2024/01/08 03:51:21;;;;;;;3.30;2.03;;;12.80;99.90;;;;;;10555287;27;20051;-67
2024/01/08 03:56:24;;;;;;;2.83;1.70;;;12.80;99.90;;;;;;10555150;27;20055;-67
2024/01/08 04:15:32;;;;;;;2.35;1.73;;;12.60;99.90;;;;;;10616346;27;20121;-66
2024/01/08 04:20:34;;;;;;;4.10;2.13;;;12.80;99.90;;;;;;10621064;27;20120;-66
2024/01/08 04:25:36;;;;;;;1.60;1.13;;;12.70;99.90;;;;;;10634120;27;20051;-67
2024/01/08 04:30:39;;;;;;;3.37;2.30;;;12.60;99.90;;;;;;10641082;27;20453;-66
2024/01/08 04:35:41;;;;;;;3.65;2.13;;;12.70;99.90;;;;;;10630910;27;20141;-67
2024/01/08 04:40:43;;;;;;;2.53;1.83;;;12.60;99.90;;;;;;10639392;27;20070;-66
2024/01/08 04:45:47;;;;;;;2.30;1.87;;;12.50;99.90;;;;;;10634422;27;20065;-66
2024/01/08 04:50:49;;;;;;;5.00;2.28;;;12.50;99.90;;;;;;10628384;27;20087;-66
2024/01/08 04:55:51;;;;;;;2.30;1.27;;;12.60;99.90;;;;;;10641556;27;20528;-66
2024/01/08 05:00:54;;;;;;;1.90;1.60;;;12.50;99.90;;;;;;10634827;27;20055;-66
2024/01/08 05:05:56;;;;;;;3.65;2.20;;;12.60;99.90;;;;;;10633059;27;20189;-66
2024/01/08 05:10:58;;;;;;;4.27;2.27;;;12.60;99.90;;;;;;10629366;27;20055;-66
2024/01/08 05:16:02;;;;;;;1.77;1.10;;;12.60;99.90;;;;;;10629198;27;20052;-67
2024/01/08 05:21:05;;;;;;;2.17;1.60;;;12.60;99.90;;;;;;10625867;27;20055;-66
2024/01/08 05:26:08;;;;;;;2.95;1.90;;;12.60;99.90;;;;;;10605991;27;20106;-65
2024/01/08 05:31:11;;;;;;;3.25;2.47;;;12.70;99.90;;;;;;10608045;27;20567;-67
2024/01/08 05:36:13;;;;;;;2.22;1.58;;;12.70;99.90;;;;;;10589509;27;20184;-65
2024/01/08 05:41:18;;;;;;;3.30;1.92;;;12.60;99.90;;;;;;10590471;27;20081;-67
2024/01/08 05:46:21;;;;;;;2.80;1.85;;;12.60;99.90;;;;;;10593133;27;20130;-65
2024/01/08 05:51:27;;;;;;;2.38;2.00;;;12.60;99.90;;;;;;10598682;27;20161;-66
2024/01/08 05:56:31;;;;;;;2.90;1.90;;;12.70;99.90;;;;;;10590904;27;20050;-65
2024/01/08 06:01:34;;;;;;;5.97;2.25;;;12.70;99.90;;;;;;10586509;27;20206;-64
2024/01/08 06:06:36;;;;;;;6.85;3.10;;;12.60;99.90;;;;;;10585164;27;23110;-64
2024/01/08 06:11:38;;;;;;;3.33;2.20;;;12.60;99.90;;;;;;10592405;27;20547;-64
2024/01/08 06:16:41;;;;;;;5.75;2.42;;;12.60;99.90;;;;;;10594039;27;20160;-63
2024/01/08 06:21:44;;;;;;;4.85;3.10;;;12.70;99.90;;;;;;10602490;27;20050;-64
2024/01/08 06:26:46;;;;;;;2.13;1.70;;;12.70;99.90;;;;;;10598459;27;20702;-65
2024/01/08 06:31:49;;;;;;;5.67;3.20;;;12.70;99.90;;;;;;10597635;27;20074;-65
2024/01/08 06:36:51;;;;;;;4.55;2.38;;;12.60;99.90;;;;;;10597268;27;20496;-64
2024/01/08 06:41:53;;;;;;;2.37;1.67;;;12.60;99.90;;;;;;10597786;27;20127;-64
2024/01/08 06:46:56;;;;;;;5.40;3.13;;;12.40;99.90;;;;;;10597380;27;20197;-64
2024/01/08 06:52:00;;;;;;;4.07;3.10;;;12.70;99.90;;;;;;10587753;27;20035;-65
2024/01/08 06:57:02;;;;;;;6.00;3.20;;;12.70;99.90;;;;;;10598182;27;20074;-64
2024/01/08 07:02:06;;;;;;;4.13;3.03;;;12.60;99.90;;;;;;10593575;27;20567;-64
2024/01/08 07:07:08;;;;;;;10.57;3.75;;;12.70;99.90;;;;;;10597412;27;21331;-66
2024/01/08 07:12:10;;;;;;;6.13;4.23;;;12.80;99.90;;;;;;10595924;27;20051;-65
2024/01/08 07:17:14;;;;;;;6.60;3.83;;;12.70;99.90;;;;;;10594102;27;20066;-64
2024/01/08 07:22:16;;;;;;;5.68;3.75;;;12.80;99.90;;;;;;10594514;27;20758;-62
2024/01/08 07:27:18;;;;;;;5.37;2.97;;;12.60;99.90;;;;;;10590815;27;20758;-65
2024/01/08 07:32:21;;;;;;;3.13;2.37;;;12.80;99.90;;;;;;10596373;27;20050;-64
2024/01/08 07:37:24;;;;;;;6.53;3.00;;;12.80;99.90;;;;;;10593822;27;20051;-64
2024/01/08 07:42:26;;;;;;;4.68;3.08;;;12.80;99.90;;;;;;10595724;27;20051;-65
2024/01/08 07:47:32;;;;;;;9.07;2.92;;;12.80;99.90;;;;;;10588167;27;20043;-65
2024/01/08 07:52:36;;;;;;;3.92;2.45;;;12.90;99.90;;;;;;10594977;27;20049;-64
2024/01/08 07:57:38;;;;;;;5.70;2.92;;;12.90;99.90;;;;;;10580568;27;20142;-64
2024/01/08 08:02:42;;;;;;;3.55;1.92;;;12.90;99.90;;;;;;10577403;27;20114;-64
2024/01/08 08:07:49;;;;;;;4.63;2.67;;;12.90;99.90;;;;;;10582243;27;20084;-64
2024/01/08 08:12:52;;;;;;;3.25;2.25;;;12.80;99.90;;;;;;10571874;27;20047;-65
2024/01/08 08:17:56;;;;;;;4.10;2.20;;;12.80;99.90;;;;;;10574776;27;20058;-65
2024/01/08 08:23:01;;;;;;;4.75;2.75;;;12.80;99.90;;;;;;10579715;27;20542;-65
2024/01/08 08:28:03;;;;;;;6.43;2.00;;;13.00;99.90;;;;;;10582616;27;20116;-65
2024/01/08 08:33:07;;;;;;;;;;;12.90;99.90;;;;;;10586399;27;20135;-65
2024/01/08 08:38:09;;;;;;;2.67;2.13;;;12.80;99.90;;;;;;10580386;27;19927;-64
2024/01/08 08:43:11;;;;;;;4.03;1.50;;;12.90;99.90;;;;;;10578934;27;20083;-65
2024/01/08 08:48:14;;;;;;;2.70;1.70;;;12.80;99.90;;;;;;10567760;27;20094;-65
2024/01/08 08:53:16;;;;;;;4.72;3.40;;;12.70;99.90;;;;;;10582440;27;20188;-64
2024/01/08 08:58:18;;;;;;;5.17;2.90;;;12.70;99.90;;;;;;10579101;27;20074;-64
2024/01/08 09:03:21;;;;;;;5.70;3.15;;;12.80;99.90;;;;;;10575568;27;20055;-64
2024/01/08 09:08:25;;;;;;;4.10;2.30;;;12.90;99.90;;;;;;10593595;27;20047;-65
2024/01/08 09:13:30;;;;;;;10.50;2.28;;;13.00;99.90;;;;;;10589851;27;20052;-65
2024/01/08 09:18:36;;;;;;;3.95;2.65;;;12.90;99.90;;;;;;10584106;27;20924;-65
2024/01/08 09:23:38;;;;;;;4.72;2.67;;;12.80;99.90;;;;;;10585740;27;20050;-64
2024/01/08 09:28:49;;;;;;;3.87;2.27;;;12.80;99.90;;;;;;10581111;27;20051;-64
2024/01/08 09:33:52;;;;;;;4.88;2.15;;;12.80;99.90;;;;;;10581782;27;20676;-66
2024/01/08 09:38:54;;;;;;;4.05;2.40;;;12.90;99.90;;;;;;10588765;27;20106;-64
2024/01/08 09:44:03;;;;;;;2.23;1.53;;;12.90;99.90;;;;;;10584390;27;20051;-64
2024/01/08 09:49:09;;;;;;;2.55;1.75;;;13.10;99.90;;;;;;10590206;27;20120;-64
2024/01/08 09:54:11;;;;;;;2.60;1.90;;;12.90;99.90;;;;;;10578043;27;20111;-65
2024/01/08 09:59:14;;;;;;;2.35;1.80;;;12.90;99.90;;;;;;10583598;27;20062;-63
2024/01/08 10:04:19;;;;;;;2.88;2.40;;;13.00;99.90;;;;;;10578985;27;20055;-64
2024/01/08 10:09:21;;;;;;;1.83;1.45;;;12.90;99.90;;;;;;10576630;27;20057;-64
2024/01/08 10:14:27;;;;;;;6.68;1.65;;;13.00;99.90;;;;;;10587378;27;20370;-63
2024/01/08 10:19:31;;;;;;;5.35;1.83;;;13.00;99.90;;;;;;10585960;27;20589;-63
2024/01/08 10:24:34;;;;;;;4.43;1.88;;;12.90;99.90;;;;;;10586239;27;20192;-65
2024/01/08 10:29:39;;;;;;;3.75;2.60;;;13.00;99.90;;;;;;10577191;27;20734;-64
2024/01/08 10:34:44;;;;;;;8.32;2.80;;;13.00;99.90;;;;;;10583022;27;20689;-63
2024/01/08 10:39:48;;;;;;;4.95;2.17;;;13.00;99.90;;;;;;10591979;27;20087;-64
2024/01/08 10:44:50;;;;;;;2.40;2.13;;;13.20;99.90;;;;;;10584846;27;20051;-64
2024/01/08 10:49:58;;;;;;;3.40;2.30;;;13.10;99.90;;;;;;10582201;27;20038;-65
2024/01/08 10:55:04;;;;;;;7.03;2.22;;;13.20;99.90;;;;;;10591794;27;20063;-65
2024/01/08 11:00:09;;;;;;;4.03;1.65;;;13.30;99.90;;;;;;10590566;27;20181;-66
2024/01/08 11:05:16;;;;;;;5.50;2.17;;;13.10;99.90;;;;;;10584711;27;20230;-63
2024/01/08 11:10:22;;;;;;;3.40;2.10;;;13.10;99.90;;;;;;10584694;27;20050;-65
2024/01/08 11:15:26;;;;;;;7.05;2.05;;;13.30;99.90;;;;;;10580682;27;20758;-63
2024/01/08 11:20:45;;;;;;;2.90;2.17;;;13.10;99.90;;;;;;10577937;27;20101;-64
2024/01/08 11:25:50;;;;;;;6.13;2.95;;;13.10;99.90;;;;;;10573207;27;20167;-63
2024/01/08 11:31:36;;;;;;;3.60;2.63;;;12.70;99.90;;;;;;10584301;27;20046;-64
2024/01/08 11:36:47;;;;;;;5.53;2.47;;;12.40;99.90;;;;;;10574680;27;20735;-64
2024/01/08 11:41:49;;;;;;;4.72;3.40;;;12.70;99.90;;;;;;10573069;27;20120;-66
2024/01/08 11:46:52;;;;;;;3.67;2.93;;;12.60;99.90;;;;;;10573437;27;20047;-64
2024/01/08 11:52:00;;;;;;;4.32;2.92;;;12.40;99.90;;;;;;10573199;27;20047;-65
2024/01/08 11:57:03;;;;;;;4.28;3.30;;;12.20;99.90;;;;;;10585696;27;20104;-65
2024/01/08 12:02:12;;;;;;;5.10;2.83;;;12.30;99.90;;;;;;10575752;27;22211;-65
2024/01/08 12:07:15;;;;;;;5.95;3.20;;;12.20;99.90;;;;;;10580068;27;20486;-64
2024/01/08 12:12:18;;;;;;;5.57;3.17;;;12.60;99.90;;;;;;10583690;27;20093;-65
2024/01/08 12:17:24;;;;;;;7.32;3.15;;;12.30;99.90;;;;;;10579886;27;20081;-64
2024/01/08 12:22:27;;;;;;;7.78;3.28;;;12.30;99.90;;;;;;10581441;27;20075;-65
2024/01/08 12:27:31;;;;;;;3.65;2.88;;;12.30;99.90;;;;;;10581402;27;20477;-64
2024/01/08 12:32:34;;;;;;;6.80;3.50;;;12.20;99.90;;;;;;10573673;27;20695;-64
2024/01/08 12:37:37;;;;;;;4.40;2.88;;;12.10;99.90;;;;;;10592621;27;20089;-66
2024/01/08 12:42:43;;;;;;;5.57;3.03;;;12.40;99.90;;;;;;10603359;27;20525;-67
2024/01/08 12:47:46;;;;;;;4.38;2.60;;;12.70;99.90;;;;;;10600067;27;20333;-65
2024/01/08 12:52:49;;;;;;;4.97;2.83;;;12.80;99.90;;;;;;10595225;27;20070;-67
2024/01/08 12:57:57;;;;;;;8.18;2.92;;;12.80;99.90;;;;;;10597315;27;20791;-65
2024/01/08 13:02:59;;;;;;;3.45;2.47;;;12.70;99.90;;;;;;10602330;27;20048;-64
2024/01/08 13:08:03;;;;;;;4.07;2.50;;;12.80;99.90;;;;;;10598353;27;20093;-64
2024/01/08 13:13:05;;;;;;;3.20;2.55;;;12.80;99.90;;;;;;10592616;27;20058;-64
2024/01/08 13:18:08;;;;;;;5.05;3.28;;;12.70;99.90;;;;;;10594757;27;20312;-63
2024/01/08 13:23:12;;;;;;;5.78;3.17;;;12.90;99.90;;;;;;10584435;27;20043;-64
2024/01/08 13:28:14;;;;;;;4.75;2.83;;;12.80;99.90;;;;;;10588056;27;20047;-64
2024/01/08 13:33:16;;;;;;;4.13;2.70;;;13.10;99.90;;;;;;10579638;27;20082;-65
2024/01/08 13:38:22;;;;;;;3.40;2.40;;;13.00;99.90;;;;;;10584397;27;20051;-64
2024/01/08 13:43:27;;;;;;;5.40;2.13;;;13.00;99.90;;;;;;10595052;27;20074;-65
2024/01/08 13:48:29;;;;;;;4.03;3.05;;;13.00;99.90;;;;;;10596732;27;20058;-63
2024/01/08 13:53:32;;;;;;;3.75;2.35;;;13.10;99.90;;;;;;10597463;27;20044;-65
2024/01/08 13:58:34;;;;;;;4.90;2.83;;;13.20;99.90;;;;;;10590336;27;20043;-64
2024/01/08 14:03:37;;;;;;;5.17;2.50;;;13.30;99.90;;;;;;10592082;27;20743;-65
2024/01/08 14:08:40;;;;;;;6.63;2.53;;;13.30;99.90;;;;;;10584538;27;20083;-63
2024/01/08 14:13:42;;;;;;;4.72;2.67;;;13.30;99.90;;;;;;10583035;27;21142;-64
2024/01/08 14:18:45;;;;;;;4.10;2.47;;;13.30;99.90;;;;;;10583639;27;20811;-64
2024/01/08 14:23:49;;;;;;;4.35;2.75;;;13.20;99.90;;;;;;10593834;27;20517;-64
2024/01/08 14:28:51;;;;;;;4.40;1.88;;;13.30;99.90;;;;;;10577976;27;20078;-70
2024/01/08 14:33:53;;;;;;;6.03;2.60;;;13.90;99.90;;;;;;10590206;27;20050;-69
2024/01/08 14:38:58;;;;;;;2.92;2.20;;;13.90;99.90;;;;;;10589917;27;20588;-68
2024/01/08 14:44:00;;;;;;;6.13;2.40;;;13.90;99.90;;;;;;10593745;27;20046;-68
2024/01/08 14:49:03;;;;;;;5.32;2.72;;;13.70;99.90;;;;;;10573643;27;20049;-68
2024/01/08 14:54:06;;;;;;;3.80;2.53;;;13.80;99.90;;;;;;10596387;27;20499;-68
2024/01/08 14:59:09;;;;;;;5.10;2.63;;;13.70;99.90;;;;;;10591587;27;20061;-69
2024/01/08 15:04:11;;;;;;;3.10;2.80;;;13.80;99.90;;;;;;10595157;27;20055;-68
2024/01/08 15:09:14;;;;;;;4.07;2.53;;;13.80;99.90;;;;;;10594263;27;20096;-67
2024/01/08 15:14:16;;;;;;;3.38;2.35;;;14.00;99.90;;;;;;10579996;27;20062;-69
2024/01/08 15:19:20;;;;;;;4.47;2.50;;;13.80;99.90;;;;;;10594413;27;20053;-68
2024/01/08 15:24:24;;;;;;;2.65;2.17;;;13.80;99.90;;;;;;10601007;27;20043;-68
2024/01/08 15:29:26;;;;;;;2.95;2.03;;;13.70;99.90;;;;;;10589243;27;20055;-68
2024/01/08 15:34:30;;;;;;;3.00;2.63;;;13.70;99.90;;;;;;10594931;27;20126;-69
2024/01/08 15:39:33;;;;;;;4.35;2.83;;;13.50;99.90;;;;;;10594262;27;20159;-70
2024/01/08 15:44:36;;;;;;;4.85;2.65;;;13.50;99.90;;;;;;10594624;27;20111;-69
2024/01/08 15:49:38;;;;;;;9.30;1.83;;;13.40;99.90;;;;;;10596829;27;20105;-69
2024/01/08 15:54:43;;;;;;;3.57;2.30;;;13.40;99.90;;;;;;10594003;27;20809;-68
2024/01/08 15:59:45;;;;;;;4.72;2.75;;;13.10;99.90;;;;;;10592256;27;20477;-69
2024/01/08 16:04:47;;;;;;;4.97;2.17;;;13.20;99.90;;;;;;10596783;27;20049;-66
2024/01/08 16:09:51;;;;;;;3.60;2.20;;;13.40;99.90;;;;;;10585398;27;20069;-69
2024/01/08 16:14:53;;;;;;;5.32;1.88;;;13.00;99.90;;;;;;10595223;27;20055;-68
2024/01/08 16:19:55;;;;;;;9.83;4.50;;;13.20;99.90;;;;;;10598925;27;20055;-67
2024/01/08 16:24:58;;;;;;;9.03;4.07;;;13.20;99.90;;;;;;10588380;27;20122;-66
2024/01/08 16:30:01;;;;;;;5.47;3.05;;;13.20;99.90;;;;;;10584872;27;20039;-68
2024/01/08 16:35:04;;;;;;;5.68;2.90;;;13.10;99.90;;;;;;10585702;27;20451;-67
2024/01/08 16:40:10;;;;;;;2.65;2.08;;;13.10;99.90;;;;;;10569063;27;20187;-68
2024/01/08 16:45:12;;;;;;;4.95;2.67;;;13.00;99.90;;;;;;10593656;27;20128;-67
2024/01/08 16:50:15;;;;;;;8.65;3.10;;;13.10;99.90;;;;;;10601919;27;20054;-67
2024/01/08 16:55:19;;;;;;;;;;;13.00;99.90;;;;;;10600601;27;20125;-71
2024/01/08 17:00:21;;;;;;;4.72;2.20;;;13.00;99.90;;;;;;10590052;27;19919;-70
2024/01/08 17:05:23;;;;;;;5.47;2.20;;;13.10;99.90;;;;;;10590621;27;20047;-69
2024/01/08 17:10:27;;;;;;;7.63;3.23;;;12.90;99.90;;;;;;10595256;27;20051;-69
2024/01/08 17:15:29;;;;;;;5.50;2.70;;;12.40;99.90;;;;;;10594269;27;20122;-69
2024/01/08 17:20:31;;;;;;;6.57;2.53;;;12.10;99.90;;;;;;10587712;27;20539;-70
2024/01/08 17:25:34;;;;;;;5.97;2.90;;;12.10;99.90;;;;;;10596007;27;20090;-68
2024/01/08 17:30:36;;;;;;;4.55;3.20;;;12.10;99.90;;;;;;10596914;27;20749;-69
2024/01/08 17:35:39;;;;;;;10.90;3.45;;;11.90;99.90;;;;;;10606321;27;20150;-70
2024/01/08 17:40:42;;;;;;;11.88;3.30;;;11.80;99.90;;;;;;10601048;27;20123;-70
2024/01/08 17:45:44;;;;;;;5.22;2.92;;;11.60;99.90;;;;;;10597235;27;20047;-70
2024/01/08 17:50:46;;;;;;;7.40;3.65;;;11.90;99.90;;;;;;10589811;27;20063;-71
2024/01/08 17:55:50;;;;;;;7.40;3.87;;;11.50;99.90;;;;;;10600959;27;20054;-69
2024/01/08 18:00:52;;;;;;;6.53;3.60;;;11.70;99.90;;;;;;10593443;27;20055;-70
2024/01/08 18:05:54;;;;;;;7.13;3.80;;;11.50;99.90;;;;;;10590333;27;20055;-68
2024/01/08 18:10:58;;;;;;;6.77;3.63;;;11.60;99.90;;;;;;10609459;27;20547;-67
2024/01/08 18:16:00;;;;;;;5.95;3.35;;;11.40;99.90;;;;;;10605032;27;21431;-68
2024/01/08 18:21:02;;;;;;;5.83;3.23;;;11.70;99.90;;;;;;10601198;27;20203;-68
2024/01/08 18:26:06;;;;;;;7.03;3.57;;;11.60;99.90;;;;;;10609516;27;20378;-67
2024/01/08 18:31:08;;;;;;;7.53;3.22;;;11.30;99.90;;;;;;10592056;27;20048;-66
2024/01/08 18:36:10;;;;;;;6.10;3.23;;;11.40;99.90;;;;;;10592179;27;20129;-67
2024/01/08 18:41:14;;;;;;;4.60;2.87;;;11.10;99.90;;;;;;10592116;27;20081;-66
2024/01/08 18:46:17;;;;;;;4.95;3.08;;;11.50;99.90;;;;;;10595141;27;20055;-70
2024/01/08 18:51:19;;;;;;;4.03;2.72;;;11.20;99.90;;;;;;10599265;27;20074;-67
2024/01/08 18:56:22;;;;;;;6.20;3.38;;;11.50;99.90;;;;;;10608584;27;20039;-69
2024/01/08 19:01:26;;;;;;;6.93;2.47;;;11.50;99.90;;;;;;10587688;27;20411;-68
2024/01/08 19:06:29;;;;;;;7.43;3.20;;;11.70;99.90;;;;;;10586873;27;20047;-68
2024/01/08 19:11:37;;;;;;;;;;;11.30;99.90;;;;;;10598986;27;20050;-67
2024/01/08 19:16:40;;;;;;;5.65;3.33;;;11.60;99.90;;;;;;10596851;27;19929;-67
2024/01/08 19:21:42;;;;;;;5.07;2.90;;;10.80;99.90;;;;;;10604030;27;20529;-69
2024/01/08 19:26:46;;;;;;;5.57;3.30;;;11.20;99.90;;;;;;10591569;27;20047;-67
2024/01/08 19:31:49;;;;;;;4.45;2.88;;;11.20;99.90;;;;;;10597778;27;20059;-67
2024/01/08 19:36:51;;;;;;;;;;;11.00;99.90;;;;;;10595432;27;20046;-67
2024/01/08 19:41:55;;;;;;;5.30;3.22;;;11.70;99.90;;;;;;10597326;27;19923;-68
2024/01/08 19:46:59;;;;;;;7.95;3.20;;;11.50;99.90;;;;;;10598201;27;20152;-68
2024/01/08 19:52:01;;;;;;;6.90;3.03;;;12.20;99.90;;;;;;10591596;27;20515;-67
2024/01/08 19:57:08;;;;;;;3.90;2.83;;;11.30;99.90;;;;;;10580940;27;21386;-66
2024/01/08 20:02:10;;;;;;;4.18;2.60;;;11.50;99.90;;;;;;10602050;27;20134;-67
2024/01/08 20:07:12;;;;;;;3.43;2.53;;;11.90;99.90;;;;;;10594883;27;20395;-67
2024/01/08 20:12:16;;;;;;;6.20;2.67;;;12.10;99.90;;;;;;10593819;27;20112;-67
2024/01/08 20:17:18;;;;;;;5.50;3.25;;;12.00;99.90;;;;;;10585480;27;20063;-68
2024/01/08 20:22:20;;;;;;;5.27;2.93;;;11.80;99.90;;;;;;10601687;27;20084;-67
2024/01/08 20:27:24;;;;;;;8.25;3.13;;;11.90;99.90;;;;;;10596956;27;20054;-66
2024/01/08 20:32:29;;;;;;;5.05;2.90;;;11.90;99.90;;;;;;10600669;27;20046;-67
2024/01/08 20:37:32;;;;;;;5.35;2.33;;;11.80;99.90;;;;;;10595195;27;20074;-67
2024/01/08 20:42:36;;;;;;;;;;;11.90;99.90;;;;;;10595405;27;20055;-68
2024/01/08 20:47:38;;;;;;;7.15;2.97;;;11.90;99.90;;;;;;10594728;27;20353;-67
2024/01/08 20:52:40;;;;;;;9.57;3.00;;;12.20;99.90;;;;;;10587153;27;20081;-67
2024/01/08 20:57:46;;;;;;;4.40;1.90;;;12.10;99.90;;;;;;10592635;27;20149;-66
2024/01/08 21:02:48;;;;;;;4.05;2.25;;;12.00;99.90;;;;;;10602661;27;20055;-68
2024/01/08 21:07:50;;;;;;;4.70;2.63;;;12.00;99.90;;;;;;10587888;27;20443;-68
2024/01/08 21:12:55;;;;;;;4.50;2.92;;;12.00;99.90;;;;;;10602361;27;20081;-66
2024/01/08 21:17:57;;;;;;;8.18;2.92;;;12.00;99.90;;;;;;10595453;27;20126;-67
2024/01/08 21:22:59;;;;;;;4.13;2.13;;;11.90;99.90;;;;;;10598487;27;20055;-68
2024/01/08 21:28:02;;;;;;;3.92;2.28;;;12.00;99.90;;;;;;10585778;27;20039;-70
2024/01/08 21:33:05;;;;;;;4.88;2.45;;;11.90;99.90;;;;;;10585797;27;20076;-68
2024/01/08 21:38:07;;;;;;;;;;;12.00;99.90;;;;;;10597059;27;20524;-65
2024/01/08 21:43:11;;;;;;;3.70;2.13;;;12.20;99.90;;;;;;10587310;27;19983;-64
2024/01/08 21:48:13;;;;;;;4.63;2.90;;;11.90;99.90;;;;;;10591671;27;20050;-65
2024/01/08 21:53:15;;;;;;;5.93;2.53;;;12.00;99.90;;;;;;10603256;27;20047;-65
2024/01/08 21:58:18;;;;;;;5.50;2.70;;;12.00;99.90;;;;;;10596801;27;20413;-64
2024/01/08 22:03:21;;;;;;;4.57;2.70;;;11.90;99.90;;;;;;10599948;27;20225;-65
2024/01/08 22:08:23;;;;;;;3.67;2.38;;;11.90;99.90;;;;;;10605792;27;20054;-66
2024/01/08 22:13:26;;;;;;;6.20;2.67;;;11.90;99.90;;;;;;10599356;27;20095;-66
2024/01/08 22:18:28;;;;;;;3.05;2.40;;;11.80;99.90;;;;;;10600593;27;20036;-65
2024/01/08 22:23:30;;;;;;;2.50;2.08;;;11.70;99.90;;;;;;10595391;27;20754;-65
2024/01/08 22:28:34;;;;;;;5.90;2.75;;;11.80;99.90;;;;;;10593282;27;20570;-66
2024/01/08 22:33:36;;;;;;;4.93;2.58;;;11.70;99.90;;;;;;10597814;27;22012;-65
2024/01/08 22:38:38;;;;;;;3.42;2.42;;;11.80;99.90;;;;;;10593844;27;20054;-65
2024/01/08 22:43:41;;;;;;;4.38;2.42;;;11.80;99.90;;;;;;10582172;27;20080;-65
2024/01/08 22:48:44;;;;;;;4.93;2.53;;;11.80;99.90;;;;;;10572868;27;20046;-65
2024/01/08 22:53:46;;;;;;;2.47;1.42;;;11.50;99.90;;;;;;10600259;27;20047;-66
2024/01/08 22:58:49;;;;;;;4.85;2.42;;;11.80;99.90;;;;;;10595999;27;20066;-65
2024/01/08 23:03:52;;;;;;;4.70;2.33;;;11.80;99.90;;;;;;10601011;27;20120;-65
2024/01/08 23:08:54;;;;;;;3.47;2.57;;;11.70;99.90;;;;;;10603446;27;20820;-65
2024/01/08 23:13:57;;;;;;;4.40;2.13;;;11.70;99.90;;;;;;10589073;27;20058;-66
2024/01/08 23:18:59;;;;;;;3.35;2.45;;;11.80;99.90;;;;;;10603539;27;20046;-66
2024/01/08 23:24:01;;;;;;;4.13;2.30;;;11.70;99.90;;;;;;10601336;27;20042;-66
2024/01/08 23:29:05;;;;;;;7.10;3.00;;;11.80;99.90;;;;;;10602984;27;20046;-66
2024/01/08 23:34:08;;;;;;;4.43;2.53;;;11.70;99.90;;;;;;10592815;27;20489;-66
2024/01/08 23:39:10;;;;;;;3.85;2.28;;;11.70;99.90;;;;;;10597959;27;20052;-65
2024/01/08 23:44:13;;;;;;;4.67;1.93;;;11.70;99.90;;;;;;10599088;27;20050;-66
2024/01/08 23:49:16;;;;;;;2.80;2.03;;;11.60;99.90;;;;;;10613496;27;20846;-65
2024/01/08 23:54:18;;;;;;;6.72;2.97;;;11.60;99.90;;;;;;10603442;27;20042;-65
2024/01/08 23:59:22;;;;;;;3.42;2.20;;;11.60;99.90;;;;;;10606075;27;20046;-65
